sensor_id;sensor_type;location;lat;lon;timestamp;temperature;humidity
68485;DHT22;55472;50.060;21.960;2022-11-15T00:00:55;4.40;99.90
68485;DHT22;55472;50.060;21.960;2022-11-15T00:03:24;4.40;99.90
68485;DHT22;55472;50.060;21.960;2022-11-15T00:05:51;4.40;99.90
68485;DHT22;55472;50.060;21.960;2022-11-15T00:08:17;4.30;99.90
68485;DHT22;55472;50.060;21.960;2022-11-15T00:10:54;4.30;99.90
68485;DHT22;55472;50.060;21.960;2022-11-15T00:13:23;4.30;99.90
68485;DHT22;55472;50.060;21.960;2022-11-15T00:15:50;4.30;99.90
68485;DHT22;55472;50.060;21.960;2022-11-15T00:18:16;4.30;99.90
68485;DHT22;55472;50.060;21.960;2022-11-15T00:20:43;4.30;99.90
68485;DHT22;55472;50.060;21.960;2022-11-15T00:23:09;4.40;99.90
68485;DHT22;55472;50.060;21.960;2022-11-15T00:25:35;4.40;99.90
68485;DHT22;55472;50.060;21.960;2022-11-15T00:28:02;4.30;99.90
68485;DHT22;55472;50.060;21.960;2022-11-15T00:30:28;4.30;99.90
68485;DHT22;55472;50.060;21.960;2022-11-15T00:32:54;4.30;99.90
68485;DHT22;55472;50.060;21.960;2022-11-15T00:35:21;4.30;99.90
68485;DHT22;55472;50.060;21.960;2022-11-15T00:37:47;4.30;99.90
68485;DHT22;55472;50.060;21.960;2022-11-15T00:40:14;4.30;99.90
68485;DHT22;55472;50.060;21.960;2022-11-15T00:42:41;4.30;99.90
68485;DHT22;55472;50.060;21.960;2022-11-15T00:45:08;4.30;99.90
68485;DHT22;55472;50.060;21.960;2022-11-15T00:47:34;4.30;99.90
68485;DHT22;55472;50.060;21.960;2022-11-15T00:50:00;4.30;99.90
68485;DHT22;55472;50.060;21.960;2022-11-15T00:52:26;4.20;99.90
68485;DHT22;55472;50.060;21.960;2022-11-15T00:54:52;4.20;99.90
68485;DHT22;55472;50.060;21.960;2022-11-15T00:57:18;4.20;99.90
68485;DHT22;55472;50.060;21.960;2022-11-15T00:59:44;4.20;99.90
68485;DHT22;55472;50.060;21.960;2022-11-15T01:02:10;4.20;99.90
68485;DHT22;55472;50.060;21.960;2022-11-15T01:04:36;4.20;99.90
68485;DHT22;55472;50.060;21.960;2022-11-15T01:07:02;4.20;99.90
68485;DHT22;55472;50.060;21.960;2022-11-15T01:09:28;4.20;99.90
68485;DHT22;55472;50.060;21.960;2022-11-15T01:11:54;4.20;99.90
68485;DHT22;55472;50.060;21.960;2022-11-15T01:14:20;4.20;99.90
68485;DHT22;55472;50.060;21.960;2022-11-15T01:16:47;4.10;99.90
68485;DHT22;55472;50.060;21.960;2022-11-15T01:19:13;4.10;99.90
68485;DHT22;55472;50.060;21.960;2022-11-15T01:21:39;4.00;99.90
68485;DHT22;55472;50.060;21.960;2022-11-15T01:24:05;3.90;99.90
68485;DHT22;55472;50.060;21.960;2022-11-15T01:26:31;3.90;99.90
68485;DHT22;55472;50.060;21.960;2022-11-15T01:28:57;3.80;99.90
68485;DHT22;55472;50.060;21.960;2022-11-15T01:31:23;3.80;99.90
68485;DHT22;55472;50.060;21.960;2022-11-15T01:33:49;3.80;99.90
68485;DHT22;55472;50.060;21.960;2022-11-15T01:36:21;3.90;99.90
68485;DHT22;55472;50.060;21.960;2022-11-15T01:38:56;3.90;99.90
68485;DHT22;55472;50.060;21.960;2022-11-15T01:41:28;3.80;99.90
68485;DHT22;55472;50.060;21.960;2022-11-15T01:44:25;3.70;99.90
68485;DHT22;55472;50.060;21.960;2022-11-15T01:46:54;3.80;99.90
68485;DHT22;55472;50.060;21.960;2022-11-15T01:49:22;3.80;99.90
68485;DHT22;55472;50.060;21.960;2022-11-15T01:51:49;3.80;99.90
68485;DHT22;55472;50.060;21.960;2022-11-15T01:54:17;3.70;99.90
68485;DHT22;55472;50.060;21.960;2022-11-15T01:56:48;3.70;99.90
68485;DHT22;55472;50.060;21.960;2022-11-15T01:59:18;3.70;99.90
68485;DHT22;55472;50.060;21.960;2022-11-15T02:01:44;3.70;99.90
68485;DHT22;55472;50.060;21.960;2022-11-15T02:04:15;3.60;99.90
68485;DHT22;55472;50.060;21.960;2022-11-15T02:06:43;3.50;99.90
68485;DHT22;55472;50.060;21.960;2022-11-15T02:09:10;3.50;99.90
68485;DHT22;55472;50.060;21.960;2022-11-15T02:11:37;3.40;99.90
68485;DHT22;55472;50.060;21.960;2022-11-15T02:14:04;3.40;99.90
68485;DHT22;55472;50.060;21.960;2022-11-15T02:16:34;3.40;99.90
68485;DHT22;55472;50.060;21.960;2022-11-15T02:25:25;3.40;99.90
68485;DHT22;55472;50.060;21.960;2022-11-15T02:28:19;3.40;99.90
68485;DHT22;55472;50.060;21.960;2022-11-15T02:40:00;3.60;99.90
68485;DHT22;55472;50.060;21.960;2022-11-15T02:42:49;3.60;99.90
68485;DHT22;55472;50.060;21.960;2022-11-15T02:45:40;3.50;99.90
68485;DHT22;55472;50.060;21.960;2022-11-15T02:48:11;3.40;99.90
68485;DHT22;55472;50.060;21.960;2022-11-15T02:50:38;3.40;99.90
68485;DHT22;55472;50.060;21.960;2022-11-15T02:53:04;3.40;99.90
68485;DHT22;55472;50.060;21.960;2022-11-15T02:55:32;3.40;99.90
68485;DHT22;55472;50.060;21.960;2022-11-15T03:01:12;3.50;99.90
68485;DHT22;55472;50.060;21.960;2022-11-15T03:04:19;3.40;99.90
68485;DHT22;55472;50.060;21.960;2022-11-15T03:07:07;3.50;99.90
68485;DHT22;55472;50.060;21.960;2022-11-15T03:10:05;3.50;99.90
68485;DHT22;55472;50.060;21.960;2022-11-15T03:15:32;3.50;99.90
68485;DHT22;55472;50.060;21.960;2022-11-15T03:18:34;3.40;99.90
68485;DHT22;55472;50.060;21.960;2022-11-15T03:21:05;3.40;99.90
68485;DHT22;55472;50.060;21.960;2022-11-15T03:23:34;3.40;99.90
68485;DHT22;55472;50.060;21.960;2022-11-15T03:26:07;3.40;99.90
68485;DHT22;55472;50.060;21.960;2022-11-15T03:29:03;3.40;99.90
68485;DHT22;55472;50.060;21.960;2022-11-15T03:31:35;3.40;99.90
68485;DHT22;55472;50.060;21.960;2022-11-15T03:34:27;3.50;99.90
68485;DHT22;55472;50.060;21.960;2022-11-15T03:36:56;3.50;99.90
68485;DHT22;55472;50.060;21.960;2022-11-15T03:39:23;3.40;99.90
68485;DHT22;55472;50.060;21.960;2022-11-15T03:47:38;3.30;99.90
68485;DHT22;55472;50.060;21.960;2022-11-15T03:50:12;3.20;99.90
68485;DHT22;55472;50.060;21.960;2022-11-15T03:52:41;3.20;99.90
68485;DHT22;55472;50.060;21.960;2022-11-15T03:55:11;3.10;99.90
68485;DHT22;55472;50.060;21.960;2022-11-15T03:57:39;3.10;99.90
68485;DHT22;55472;50.060;21.960;2022-11-15T04:00:06;3.10;99.90
68485;DHT22;55472;50.060;21.960;2022-11-15T04:02:32;3.10;99.90
68485;DHT22;55472;50.060;21.960;2022-11-15T04:04:58;3.10;99.90
68485;DHT22;55472;50.060;21.960;2022-11-15T04:07:24;3.10;99.90
68485;DHT22;55472;50.060;21.960;2022-11-15T04:09:50;3.10;99.90
68485;DHT22;55472;50.060;21.960;2022-11-15T04:12:36;3.00;99.90
68485;DHT22;55472;50.060;21.960;2022-11-15T04:15:07;2.80;99.90
68485;DHT22;55472;50.060;21.960;2022-11-15T04:20:13;2.70;99.90
68485;DHT22;55472;50.060;21.960;2022-11-15T04:23:03;2.70;99.90
68485;DHT22;55472;50.060;21.960;2022-11-15T04:25:54;2.70;99.90
68485;DHT22;55472;50.060;21.960;2022-11-15T04:28:21;2.70;99.90
68485;DHT22;55472;50.060;21.960;2022-11-15T04:30:48;2.70;99.90
68485;DHT22;55472;50.060;21.960;2022-11-15T04:33:14;2.70;99.90
68485;DHT22;55472;50.060;21.960;2022-11-15T04:35:41;2.70;99.90
68485;DHT22;55472;50.060;21.960;2022-11-15T04:38:09;2.60;99.90
68485;DHT22;55472;50.060;21.960;2022-11-15T04:40:37;2.50;99.90
68485;DHT22;55472;50.060;21.960;2022-11-15T04:43:03;2.50;99.90
68485;DHT22;55472;50.060;21.960;2022-11-15T04:45:30;2.50;99.90
68485;DHT22;55472;50.060;21.960;2022-11-15T04:47:56;2.60;99.90
68485;DHT22;55472;50.060;21.960;2022-11-15T04:50:22;2.60;99.90
68485;DHT22;55472;50.060;21.960;2022-11-15T04:52:53;2.60;99.90
68485;DHT22;55472;50.060;21.960;2022-11-15T04:55:20;2.70;99.90
68485;DHT22;55472;50.060;21.960;2022-11-15T04:57:46;2.70;99.90
68485;DHT22;55472;50.060;21.960;2022-11-15T05:00:14;2.70;99.90
68485;DHT22;55472;50.060;21.960;2022-11-15T05:02:41;2.60;99.90
68485;DHT22;55472;50.060;21.960;2022-11-15T05:05:26;2.50;99.90
68485;DHT22;55472;50.060;21.960;2022-11-15T05:07:52;2.50;99.90
68485;DHT22;55472;50.060;21.960;2022-11-15T05:10:18;2.50;99.90
68485;DHT22;55472;50.060;21.960;2022-11-15T05:12:43;2.40;99.90
68485;DHT22;55472;50.060;21.960;2022-11-15T05:15:10;2.30;99.90
68485;DHT22;55472;50.060;21.960;2022-11-15T05:17:35;2.30;99.90
68485;DHT22;55472;50.060;21.960;2022-11-15T05:20:02;2.30;99.90
68485;DHT22;55472;50.060;21.960;2022-11-15T05:22:28;2.20;99.90
68485;DHT22;55472;50.060;21.960;2022-11-15T05:24:54;2.20;99.90
68485;DHT22;55472;50.060;21.960;2022-11-15T05:27:20;2.10;99.90
68485;DHT22;55472;50.060;21.960;2022-11-15T05:29:46;2.00;99.90
68485;DHT22;55472;50.060;21.960;2022-11-15T05:32:12;2.00;99.90
68485;DHT22;55472;50.060;21.960;2022-11-15T05:34:39;1.90;99.90
68485;DHT22;55472;50.060;21.960;2022-11-15T05:37:05;1.90;99.90
68485;DHT22;55472;50.060;21.960;2022-11-15T05:39:31;1.90;99.90
68485;DHT22;55472;50.060;21.960;2022-11-15T05:42:04;1.90;99.90
68485;DHT22;55472;50.060;21.960;2022-11-15T05:44:34;1.90;99.90
68485;DHT22;55472;50.060;21.960;2022-11-15T05:47:02;1.90;99.90
68485;DHT22;55472;50.060;21.960;2022-11-15T05:49:31;1.80;99.90
68485;DHT22;55472;50.060;21.960;2022-11-15T05:52:00;1.70;99.90
68485;DHT22;55472;50.060;21.960;2022-11-15T05:54:26;1.70;99.90
68485;DHT22;55472;50.060;21.960;2022-11-15T05:56:52;1.70;99.90
68485;DHT22;55472;50.060;21.960;2022-11-15T05:59:19;1.70;99.90
68485;DHT22;55472;50.060;21.960;2022-11-15T06:01:46;1.80;99.90
68485;DHT22;55472;50.060;21.960;2022-11-15T06:04:12;1.80;99.90
68485;DHT22;55472;50.060;21.960;2022-11-15T06:06:37;1.80;99.90
68485;DHT22;55472;50.060;21.960;2022-11-15T06:09:04;1.80;99.90
68485;DHT22;55472;50.060;21.960;2022-11-15T06:11:30;1.80;99.90
68485;DHT22;55472;50.060;21.960;2022-11-15T06:13:56;1.70;99.90
68485;DHT22;55472;50.060;21.960;2022-11-15T06:16:22;1.70;99.90
68485;DHT22;55472;50.060;21.960;2022-11-15T06:18:48;1.70;99.90
68485;DHT22;55472;50.060;21.960;2022-11-15T06:21:14;1.80;99.90
68485;DHT22;55472;50.060;21.960;2022-11-15T06:23:40;1.80;99.90
68485;DHT22;55472;50.060;21.960;2022-11-15T06:26:06;1.90;99.90
68485;DHT22;55472;50.060;21.960;2022-11-15T06:28:32;1.90;99.90
68485;DHT22;55472;50.060;21.960;2022-11-15T06:31:03;1.90;99.90
68485;DHT22;55472;50.060;21.960;2022-11-15T06:33:33;1.90;99.90
68485;DHT22;55472;50.060;21.960;2022-11-15T06:36:03;2.00;99.60
68485;DHT22;55472;50.060;21.960;2022-11-15T06:38:30;2.00;99.10
68485;DHT22;55472;50.060;21.960;2022-11-15T06:41:04;1.90;98.80
68485;DHT22;55472;50.060;21.960;2022-11-15T06:43:32;1.80;98.90
68485;DHT22;55472;50.060;21.960;2022-11-15T06:45:59;1.70;99.30
68485;DHT22;55472;50.060;21.960;2022-11-15T06:48:26;1.80;99.90
68485;DHT22;55472;50.060;21.960;2022-11-15T06:50:58;1.90;99.90
68485;DHT22;55472;50.060;21.960;2022-11-15T06:53:26;2.00;99.90
68485;DHT22;55472;50.060;21.960;2022-11-15T06:55:52;2.10;99.90
68485;DHT22;55472;50.060;21.960;2022-11-15T06:58:20;2.20;99.90
68485;DHT22;55472;50.060;21.960;2022-11-15T07:00:46;2.30;99.90
68485;DHT22;55472;50.060;21.960;2022-11-15T07:03:12;2.40;99.90
68485;DHT22;55472;50.060;21.960;2022-11-15T07:05:38;2.60;99.90
68485;DHT22;55472;50.060;21.960;2022-11-15T07:08:04;2.80;99.90
68485;DHT22;55472;50.060;21.960;2022-11-15T07:10:30;3.10;98.70
68485;DHT22;55472;50.060;21.960;2022-11-15T07:12:56;3.40;97.60
68485;DHT22;55472;50.060;21.960;2022-11-15T07:15:24;3.50;94.20
68485;DHT22;55472;50.060;21.960;2022-11-15T07:17:51;3.70;93.00
68485;DHT22;55472;50.060;21.960;2022-11-15T07:20:18;3.90;92.10
68485;DHT22;55472;50.060;21.960;2022-11-15T07:22:44;4.20;90.90
68485;DHT22;55472;50.060;21.960;2022-11-15T07:25:11;4.50;88.20
68485;DHT22;55472;50.060;21.960;2022-11-15T07:27:37;4.70;87.80
68485;DHT22;55472;50.060;21.960;2022-11-15T07:30:04;5.20;86.90
68485;DHT22;55472;50.060;21.960;2022-11-15T07:32:31;5.90;84.40
68485;DHT22;55472;50.060;21.960;2022-11-15T07:34:56;6.90;78.60
68485;DHT22;55472;50.060;21.960;2022-11-15T07:37:23;8.10;74.60
68485;DHT22;55472;50.060;21.960;2022-11-15T07:39:48;9.60;68.00
68485;DHT22;55472;50.060;21.960;2022-11-15T07:42:15;11.00;63.80
68485;DHT22;55472;50.060;21.960;2022-11-15T07:44:59;12.20;60.10
68485;DHT22;55472;50.060;21.960;2022-11-15T07:47:27;13.80;54.80
68485;DHT22;55472;50.060;21.960;2022-11-15T07:49:54;14.70;52.80
68485;DHT22;55472;50.060;21.960;2022-11-15T07:52:20;15.80;51.30
68485;DHT22;55472;50.060;21.960;2022-11-15T07:54:48;16.90;48.60
68485;DHT22;55472;50.060;21.960;2022-11-15T07:57:14;18.10;47.30
68485;DHT22;55472;50.060;21.960;2022-11-15T07:59:40;19.30;45.20
68485;DHT22;55472;50.060;21.960;2022-11-15T08:02:08;20.40;43.00
68485;DHT22;55472;50.060;21.960;2022-11-15T08:04:35;21.40;41.90
68485;DHT22;55472;50.060;21.960;2022-11-15T08:07:01;21.80;39.30
68485;DHT22;55472;50.060;21.960;2022-11-15T08:09:27;21.70;40.10
68485;DHT22;55472;50.060;21.960;2022-11-15T08:11:53;22.50;38.90
68485;DHT22;55472;50.060;21.960;2022-11-15T08:14:19;23.20;37.40
68485;DHT22;55472;50.060;21.960;2022-11-15T08:16:48;23.50;37.50
68485;DHT22;55472;50.060;21.960;2022-11-15T08:19:14;23.60;36.60
68485;DHT22;55472;50.060;21.960;2022-11-15T08:21:40;23.90;36.10
68485;DHT22;55472;50.060;21.960;2022-11-15T08:24:08;23.90;36.60
68485;DHT22;55472;50.060;21.960;2022-11-15T08:26:35;24.80;35.70
68485;DHT22;55472;50.060;21.960;2022-11-15T08:29:01;25.70;35.00
68485;DHT22;55472;50.060;21.960;2022-11-15T08:31:28;26.40;33.40
68485;DHT22;55472;50.060;21.960;2022-11-15T08:33:54;26.00;33.90
68485;DHT22;55472;50.060;21.960;2022-11-15T08:36:20;26.30;34.20
68485;DHT22;55472;50.060;21.960;2022-11-15T08:38:46;26.90;33.00
68485;DHT22;55472;50.060;21.960;2022-11-15T08:41:21;26.80;33.00
68485;DHT22;55472;50.060;21.960;2022-11-15T08:43:50;26.50;33.50
68485;DHT22;55472;50.060;21.960;2022-11-15T08:46:17;25.80;34.20
68485;DHT22;55472;50.060;21.960;2022-11-15T08:48:43;25.50;34.70
68485;DHT22;55472;50.060;21.960;2022-11-15T08:51:10;24.60;36.20
68485;DHT22;55472;50.060;21.960;2022-11-15T08:53:36;23.00;37.90
68485;DHT22;55472;50.060;21.960;2022-11-15T08:56:02;21.40;40.00
68485;DHT22;55472;50.060;21.960;2022-11-15T08:58:28;19.70;43.10
68485;DHT22;55472;50.060;21.960;2022-11-15T09:00:54;18.80;44.70
68485;DHT22;55472;50.060;21.960;2022-11-15T09:05:47;16.10;50.60
68485;DHT22;55472;50.060;21.960;2022-11-15T09:08:13;15.10;52.80
68485;DHT22;55472;50.060;21.960;2022-11-15T09:10:39;15.00;53.90
68485;DHT22;55472;50.060;21.960;2022-11-15T09:13:04;15.10;54.30
68485;DHT22;55472;50.060;21.960;2022-11-15T09:15:31;16.00;52.60
68485;DHT22;55472;50.060;21.960;2022-11-15T09:18:00;18.20;48.40
68485;DHT22;55472;50.060;21.960;2022-11-15T09:20:26;20.50;44.10
68485;DHT22;55472;50.060;21.960;2022-11-15T09:22:52;22.30;40.90
68485;DHT22;55472;50.060;21.960;2022-11-15T09:25:18;23.50;38.30
68485;DHT22;55472;50.060;21.960;2022-11-15T09:27:44;24.10;38.10
68485;DHT22;55472;50.060;21.960;2022-11-15T09:30:10;23.60;38.20
68485;DHT22;55472;50.060;21.960;2022-11-15T09:32:36;22.70;39.10
68485;DHT22;55472;50.060;21.960;2022-11-15T09:35:02;21.80;41.30
68485;DHT22;55472;50.060;21.960;2022-11-15T09:37:28;20.80;42.60
68485;DHT22;55472;50.060;21.960;2022-11-15T09:39:54;19.10;45.50
68485;DHT22;55472;50.060;21.960;2022-11-15T09:42:33;18.60;46.40
68485;DHT22;55472;50.060;21.960;2022-11-15T09:45:29;18.20;48.00
68485;DHT22;55472;50.060;21.960;2022-11-15T09:53:24;16.70;52.40
68485;DHT22;55472;50.060;21.960;2022-11-15T09:56:13;17.00;51.30
68485;DHT22;55472;50.060;21.960;2022-11-15T10:04:18;17.00;50.80
68485;DHT22;55472;50.060;21.960;2022-11-15T10:06:55;17.00;51.10
68485;DHT22;55472;50.060;21.960;2022-11-15T10:09:35;17.00;51.60
68485;DHT22;55472;50.060;21.960;2022-11-15T10:12:17;16.90;51.50
68485;DHT22;55472;50.060;21.960;2022-11-15T10:14:45;16.60;52.40
68485;DHT22;55472;50.060;21.960;2022-11-15T10:17:31;16.40;52.70
68485;DHT22;55472;50.060;21.960;2022-11-15T10:20:38;16.30;53.40
68485;DHT22;55472;50.060;21.960;2022-11-15T10:23:11;16.00;54.30
68485;DHT22;55472;50.060;21.960;2022-11-15T10:25:40;15.90;54.30
68485;DHT22;55472;50.060;21.960;2022-11-15T10:28:33;15.70;55.00
68485;DHT22;55472;50.060;21.960;2022-11-15T10:31:00;15.50;55.70
68485;DHT22;55472;50.060;21.960;2022-11-15T10:46:44;14.20;58.50
68485;DHT22;55472;50.060;21.960;2022-11-15T10:49:26;14.00;59.70
68485;DHT22;55472;50.060;21.960;2022-11-15T10:52:13;13.80;59.90
68485;DHT22;55472;50.060;21.960;2022-11-15T10:57:16;13.50;61.00
68485;DHT22;55472;50.060;21.960;2022-11-15T11:00:04;13.50;61.40
68485;DHT22;55472;50.060;21.960;2022-11-15T11:02:56;13.60;61.50
68485;DHT22;55472;50.060;21.960;2022-11-15T11:05:40;13.60;61.50
68485;DHT22;55472;50.060;21.960;2022-11-15T11:08:23;13.60;61.10
68485;DHT22;55472;50.060;21.960;2022-11-15T11:10:58;13.60;61.30
68485;DHT22;55472;50.060;21.960;2022-11-15T11:13:27;13.60;60.80
68485;DHT22;55472;50.060;21.960;2022-11-15T11:18:48;13.70;61.40
68485;DHT22;55472;50.060;21.960;2022-11-15T11:21:37;13.90;60.90
68485;DHT22;55472;50.060;21.960;2022-11-15T11:24:22;14.30;59.90
68485;DHT22;55472;50.060;21.960;2022-11-15T11:27:22;14.70;59.50
68485;DHT22;55472;50.060;21.960;2022-11-15T11:34:13;15.60;55.90
68485;DHT22;55472;50.060;21.960;2022-11-15T11:36:50;16.00;55.10
68485;DHT22;55472;50.060;21.960;2022-11-15T11:42:26;16.50;54.30
68485;DHT22;55472;50.060;21.960;2022-11-15T11:45:18;16.80;54.70
68485;DHT22;55472;50.060;21.960;2022-11-15T11:48:02;17.10;54.10
68485;DHT22;55472;50.060;21.960;2022-11-15T11:50:38;17.30;53.20
68485;DHT22;55472;50.060;21.960;2022-11-15T11:58:50;18.30;51.60
68485;DHT22;55472;50.060;21.960;2022-11-15T12:01:29;18.60;51.10
68485;DHT22;55472;50.060;21.960;2022-11-15T12:07:03;19.00;50.60
68485;DHT22;55472;50.060;21.960;2022-11-15T12:09:41;19.00;50.20
68485;DHT22;55472;50.060;21.960;2022-11-15T12:12:49;19.00;50.00
68485;DHT22;55472;50.060;21.960;2022-11-15T12:16:03;19.20;50.00
68485;DHT22;55472;50.060;21.960;2022-11-15T12:18:32;19.40;49.40
68485;DHT22;55472;50.060;21.960;2022-11-15T12:24:14;19.60;48.70
68485;DHT22;55472;50.060;21.960;2022-11-15T12:26:52;19.80;48.40
68485;DHT22;55472;50.060;21.960;2022-11-15T12:29:37;20.00;47.70
68485;DHT22;55472;50.060;21.960;2022-11-15T12:34:50;20.10;47.30
68485;DHT22;55472;50.060;21.960;2022-11-15T12:43:39;20.00;47.70
68485;DHT22;55472;50.060;21.960;2022-11-15T12:48:59;19.90;47.10
68485;DHT22;55472;50.060;21.960;2022-11-15T13:00:36;19.90;48.00
68485;DHT22;55472;50.060;21.960;2022-11-15T13:03:21;20.00;47.80
68485;DHT22;55472;50.060;21.960;2022-11-15T13:05:56;19.90;47.60
68485;DHT22;55472;50.060;21.960;2022-11-15T13:08:56;19.90;48.70
68485;DHT22;55472;50.060;21.960;2022-11-15T13:11:41;19.80;48.10
68485;DHT22;55472;50.060;21.960;2022-11-15T13:17:24;18.90;50.70
68485;DHT22;55472;50.060;21.960;2022-11-15T13:20:02;19.00;49.80
68485;DHT22;55472;50.060;21.960;2022-11-15T13:22:59;19.00;50.10
68485;DHT22;55472;50.060;21.960;2022-11-15T13:31:24;19.00;51.70
68485;DHT22;55472;50.060;21.960;2022-11-15T13:34:02;18.50;52.80
68485;DHT22;55472;50.060;21.960;2022-11-15T13:36:38;18.40;53.50
68485;DHT22;55472;50.060;21.960;2022-11-15T13:39:12;18.00;53.90
68485;DHT22;55472;50.060;21.960;2022-11-15T13:41:50;17.50;55.60
68485;DHT22;55472;50.060;21.960;2022-11-15T13:44:28;17.50;55.70
68485;DHT22;55472;50.060;21.960;2022-11-15T13:47:13;17.30;56.40
68485;DHT22;55472;50.060;21.960;2022-11-15T13:49:41;17.20;56.40
68485;DHT22;55472;50.060;21.960;2022-11-15T13:52:10;16.90;57.30
68485;DHT22;55472;50.060;21.960;2022-11-15T13:54:45;16.60;57.70
68485;DHT22;55472;50.060;21.960;2022-11-15T13:57:17;16.20;58.70
68485;DHT22;55472;50.060;21.960;2022-11-15T13:59:53;15.80;59.70
68485;DHT22;55472;50.060;21.960;2022-11-15T14:02:26;15.50;61.10
68485;DHT22;55472;50.060;21.960;2022-11-15T14:08:12;15.30;61.20
68485;DHT22;55472;50.060;21.960;2022-11-15T14:10:48;15.00;62.30
68485;DHT22;55472;50.060;21.960;2022-11-15T14:13:32;14.90;62.70
68485;DHT22;55472;50.060;21.960;2022-11-15T14:16:35;14.70;62.80
68485;DHT22;55472;50.060;21.960;2022-11-15T14:19:04;14.40;63.20
68485;DHT22;55472;50.060;21.960;2022-11-15T14:21:31;14.30;64.20
68485;DHT22;55472;50.060;21.960;2022-11-15T14:24:17;14.20;63.80
68485;DHT22;55472;50.060;21.960;2022-11-15T14:26:44;14.00;64.50
68485;DHT22;55472;50.060;21.960;2022-11-15T14:29:28;13.90;64.80
68485;DHT22;55472;50.060;21.960;2022-11-15T14:32:13;13.70;65.20
68485;DHT22;55472;50.060;21.960;2022-11-15T14:34:49;13.50;66.00
68485;DHT22;55472;50.060;21.960;2022-11-15T14:37:31;13.40;66.50
68485;DHT22;55472;50.060;21.960;2022-11-15T14:40:03;13.20;67.10
68485;DHT22;55472;50.060;21.960;2022-11-15T14:42:30;13.00;67.60
68485;DHT22;55472;50.060;21.960;2022-11-15T14:44:56;12.80;67.70
68485;DHT22;55472;50.060;21.960;2022-11-15T14:47:22;12.60;68.40
68485;DHT22;55472;50.060;21.960;2022-11-15T14:49:48;12.40;68.90
68485;DHT22;55472;50.060;21.960;2022-11-15T14:52:26;12.20;69.20
68485;DHT22;55472;50.060;21.960;2022-11-15T14:54:57;12.10;69.60
68485;DHT22;55472;50.060;21.960;2022-11-15T14:57:24;11.90;70.00
68485;DHT22;55472;50.060;21.960;2022-11-15T14:59:50;11.70;70.40
68485;DHT22;55472;50.060;21.960;2022-11-15T15:02:20;11.50;71.30
68485;DHT22;55472;50.060;21.960;2022-11-15T15:04:48;11.40;71.90
68485;DHT22;55472;50.060;21.960;2022-11-15T15:07:15;11.30;72.40
68485;DHT22;55472;50.060;21.960;2022-11-15T15:09:41;11.20;72.90
68485;DHT22;55472;50.060;21.960;2022-11-15T15:12:21;11.10;73.40
68485;DHT22;55472;50.060;21.960;2022-11-15T15:14:49;11.00;73.90
68485;DHT22;55472;50.060;21.960;2022-11-15T15:17:16;11.00;74.00
68485;DHT22;55472;50.060;21.960;2022-11-15T15:19:43;10.90;74.20
68485;DHT22;55472;50.060;21.960;2022-11-15T15:22:16;10.90;74.50
68485;DHT22;55472;50.060;21.960;2022-11-15T15:24:45;10.90;74.70
68485;DHT22;55472;50.060;21.960;2022-11-15T15:27:12;10.90;74.80
68485;DHT22;55472;50.060;21.960;2022-11-15T15:29:38;10.80;74.80
68485;DHT22;55472;50.060;21.960;2022-11-15T15:32:05;10.80;75.40
68485;DHT22;55472;50.060;21.960;2022-11-15T15:34:31;10.70;75.90
68485;DHT22;55472;50.060;21.960;2022-11-15T15:39:34;10.60;76.30
68485;DHT22;55472;50.060;21.960;2022-11-15T15:42:00;10.50;76.40
68485;DHT22;55472;50.060;21.960;2022-11-15T15:44:26;10.30;77.20
68485;DHT22;55472;50.060;21.960;2022-11-15T15:46:52;10.30;77.40
68485;DHT22;55472;50.060;21.960;2022-11-15T15:49:18;10.20;77.70
68485;DHT22;55472;50.060;21.960;2022-11-15T15:51:44;10.10;78.30
68485;DHT22;55472;50.060;21.960;2022-11-15T15:54:10;10.10;78.10
68485;DHT22;55472;50.060;21.960;2022-11-15T15:56:36;10.10;77.80
68485;DHT22;55472;50.060;21.960;2022-11-15T15:59:02;10.00;77.70
68485;DHT22;55472;50.060;21.960;2022-11-15T16:01:28;9.90;78.20
68485;DHT22;55472;50.060;21.960;2022-11-15T16:03:54;9.80;78.80
68485;DHT22;55472;50.060;21.960;2022-11-15T16:06:33;9.80;78.80
68485;DHT22;55472;50.060;21.960;2022-11-15T16:09:02;9.80;78.80
68485;DHT22;55472;50.060;21.960;2022-11-15T16:11:28;9.70;79.00
68485;DHT22;55472;50.060;21.960;2022-11-15T16:13:54;9.70;79.10
68485;DHT22;55472;50.060;21.960;2022-11-15T16:16:21;9.80;79.40
68485;DHT22;55472;50.060;21.960;2022-11-15T16:18:47;9.70;79.00
68485;DHT22;55472;50.060;21.960;2022-11-15T16:21:13;9.80;78.30
68485;DHT22;55472;50.060;21.960;2022-11-15T16:23:39;9.80;77.60
68485;DHT22;55472;50.060;21.960;2022-11-15T16:26:25;9.80;76.80
68485;DHT22;55472;50.060;21.960;2022-11-15T16:28:52;9.80;76.50
68485;DHT22;55472;50.060;21.960;2022-11-15T16:31:19;9.80;75.60
68485;DHT22;55472;50.060;21.960;2022-11-15T16:33:48;9.90;73.80
68485;DHT22;55472;50.060;21.960;2022-11-15T16:36:22;9.90;72.20
68485;DHT22;55472;50.060;21.960;2022-11-15T16:38:49;9.90;71.90
68485;DHT22;55472;50.060;21.960;2022-11-15T16:41:16;9.90;71.10
68485;DHT22;55472;50.060;21.960;2022-11-15T16:43:48;9.90;70.30
68485;DHT22;55472;50.060;21.960;2022-11-15T16:46:22;10.00;69.10
68485;DHT22;55472;50.060;21.960;2022-11-15T16:48:50;10.00;69.10
68485;DHT22;55472;50.060;21.960;2022-11-15T16:51:16;10.00;68.60
68485;DHT22;55472;50.060;21.960;2022-11-15T16:53:43;10.00;68.80
68485;DHT22;55472;50.060;21.960;2022-11-15T16:56:25;10.00;68.60
68485;DHT22;55472;50.060;21.960;2022-11-15T16:58:56;10.10;68.10
68485;DHT22;55472;50.060;21.960;2022-11-15T17:01:25;10.10;67.60
68485;DHT22;55472;50.060;21.960;2022-11-15T17:04:02;10.10;67.50
68485;DHT22;55472;50.060;21.960;2022-11-15T17:06:39;10.20;67.30
68485;DHT22;55472;50.060;21.960;2022-11-15T17:09:09;10.20;67.30
68485;DHT22;55472;50.060;21.960;2022-11-15T17:11:42;10.20;67.40
68485;DHT22;55472;50.060;21.960;2022-11-15T17:14:09;10.30;67.20
68485;DHT22;55472;50.060;21.960;2022-11-15T17:16:36;10.30;68.20
68485;DHT22;55472;50.060;21.960;2022-11-15T17:19:14;10.20;69.10
68485;DHT22;55472;50.060;21.960;2022-11-15T17:21:42;10.30;69.10
68485;DHT22;55472;50.060;21.960;2022-11-15T17:24:09;10.30;69.40
68485;DHT22;55472;50.060;21.960;2022-11-15T17:26:36;10.20;69.60
68485;DHT22;55472;50.060;21.960;2022-11-15T17:29:02;10.20;69.70
68485;DHT22;55472;50.060;21.960;2022-11-15T17:31:33;10.20;69.90
68485;DHT22;55472;50.060;21.960;2022-11-15T17:34:02;10.20;70.70
68485;DHT22;55472;50.060;21.960;2022-11-15T17:36:29;10.10;71.30
68485;DHT22;55472;50.060;21.960;2022-11-15T17:38:55;10.10;71.40
68485;DHT22;55472;50.060;21.960;2022-11-15T17:41:21;10.10;71.50
68485;DHT22;55472;50.060;21.960;2022-11-15T17:43:48;10.00;71.70